Time;durP1;ratioP1;P1;durP2;ratioP2;P2;SDS_P1;SDS_P2;PMS_P1;PMS_P2;Temp;Humidity;BMP_temperature;BMP_pressure;BME280_temperature;BME280_humidity;BME280_pressure;Samples;Min_cycle;Max_cycle;Signal;HPM_P1;HPM_P2
2023/07/11 00:02:10;;;;;;;11.88;2.70;;;20.40;99.90;;;;;;5058255;28;20665;-75
2023/07/11 00:04:36;;;;;;;5.88;2.88;;;20.40;99.90;;;;;;5059540;28;20519;-75
2023/07/11 00:07:03;;;;;;;6.63;2.28;;;20.40;99.90;;;;;;5054765;28;20178;-76
2023/07/11 00:09:28;;;;;;;6.93;2.50;;;20.40;99.90;;;;;;5036473;28;20208;-76
2023/07/11 00:11:54;;;;;;;6.18;2.47;;;20.40;99.90;;;;;;5078926;28;20226;-75
2023/07/11 00:14:21;;;;;;;4.57;2.10;;;20.40;99.90;;;;;;5038310;28;20172;-75
2023/07/11 00:16:46;;;;;;;8.95;2.30;;;20.30;99.90;;;;;;5053643;28;20182;-75
2023/07/11 00:19:13;;;;;;;7.88;2.20;;;20.30;99.90;;;;;;5059857;28;20523;-78
2023/07/11 00:21:38;;;;;;;6.30;2.08;;;20.30;99.90;;;;;;5056547;28;20226;-77
2023/07/11 00:24:05;;;;;;;6.43;2.05;;;20.30;99.90;;;;;;5053550;28;20520;-76
2023/07/11 00:26:33;;;;;;;8.25;2.05;;;20.30;99.90;;;;;;5065509;28;20252;-77
2023/07/11 00:29:01;;;;;;;6.88;2.33;;;20.30;99.90;;;;;;5058191;28;20206;-77
2023/07/11 00:31:28;;;;;;;7.03;2.22;;;20.20;99.90;;;;;;5063546;28;20273;-77
2023/07/11 00:33:54;;;;;;;5.75;1.80;;;20.20;99.90;;;;;;5066376;28;20247;-76
2023/07/11 00:36:21;;;;;;;8.27;2.08;;;20.20;99.90;;;;;;5072218;28;20190;-76
2023/07/11 00:38:47;;;;;;;4.00;1.70;;;20.20;99.90;;;;;;5063803;28;20229;-76
2023/07/11 00:41:13;;;;;;;10.27;1.75;;;20.30;99.90;;;;;;5063148;28;20238;-76
2023/07/11 00:43:38;;;;;;;7.65;2.00;;;20.30;99.90;;;;;;5073724;28;20175;-76
2023/07/11 00:46:16;;;;;;;8.23;2.20;;;20.30;99.90;;;;;;5041236;28;20190;-75
2023/07/11 00:48:59;;;;;;;6.82;2.08;;;20.30;99.90;;;;;;5063287;28;20175;-78
2023/07/11 00:51:33;;;;;;;8.18;1.77;;;20.20;99.90;;;;;;5051168;28;20215;-78
2023/07/11 00:54:00;;;;;;;5.18;1.77;;;20.20;99.90;;;;;;5056365;28;20183;-76
2023/07/11 00:56:30;;;;;;;6.60;2.05;;;20.20;99.90;;;;;;5054903;28;20230;-76
2023/07/11 00:58:57;;;;;;;7.15;2.00;;;20.30;99.90;;;;;;5057726;28;20186;-76
2023/07/11 01:01:24;;;;;;;6.25;2.00;;;20.20;99.90;;;;;;5057478;28;20206;-75
2023/07/11 01:03:52;;;;;;;7.35;2.30;;;20.30;99.90;;;;;;5074576;28;20221;-75
2023/07/11 01:06:22;;;;;;;4.00;2.10;;;20.20;99.90;;;;;;5061464;28;20192;-77
2023/07/11 01:08:50;;;;;;;6.07;2.40;;;20.30;99.90;;;;;;5051992;28;20183;-77
2023/07/11 01:11:18;;;;;;;4.38;2.35;;;20.20;99.90;;;;;;5048052;28;20324;-76
2023/07/11 01:13:44;;;;;;;8.75;2.60;;;20.30;99.90;;;;;;5037485;28;20168;-76
2023/07/11 01:16:09;;;;;;;9.65;2.75;;;20.20;99.90;;;;;;5057257;28;20182;-78
2023/07/11 01:18:36;;;;;;;10.63;2.97;;;20.20;99.90;;;;;;5061514;28;20191;-77
2023/07/11 01:21:04;;;;;;;8.38;2.50;;;20.20;99.90;;;;;;5056639;28;20227;-76
2023/07/11 01:23:32;;;;;;;5.55;2.38;;;20.20;99.90;;;;;;5068277;28;20262;-79
2023/07/11 01:26:04;;;;;;;5.93;2.70;;;20.10;99.90;;;;;;5055515;28;20189;-77
2023/07/11 01:28:30;;;;;;;6.20;2.28;;;20.10;99.90;;;;;;5048179;28;20190;-77
2023/07/11 01:30:56;;;;;;;13.48;3.15;;;20.20;99.90;;;;;;5064543;28;20190;-83
2023/07/11 01:33:24;;;;;;;5.53;2.42;;;20.20;99.90;;;;;;5073422;28;20307;-77
2023/07/11 01:35:54;;;;;;;7.25;2.20;;;20.20;99.90;;;;;;5055784;28;20254;-77
2023/07/11 01:38:23;;;;;;;5.55;2.55;;;20.10;99.90;;;;;;5051402;28;20293;-77
2023/07/11 01:40:49;;;;;;;7.90;2.65;;;20.10;99.90;;;;;;5070901;28;20211;-76
2023/07/11 01:43:17;;;;;;;6.18;2.83;;;20.10;99.90;;;;;;5084144;28;20205;-76
2023/07/11 01:45:43;;;;;;;7.55;2.60;;;20.10;99.90;;;;;;5069117;28;20275;-76
2023/07/11 01:48:09;;;;;;;7.07;2.72;;;20.10;99.90;;;;;;5071654;28;20270;-76
2023/07/11 01:50:35;;;;;;;8.32;3.10;;;20.20;99.90;;;;;;5057267;28;20187;-76
2023/07/11 01:53:01;;;;;;;6.20;2.70;;;20.10;99.90;;;;;;5051491;28;20717;-77
2023/07/11 01:55:26;;;;;;;9.32;2.97;;;20.10;99.90;;;;;;5037799;28;20283;-75
2023/07/11 01:57:53;;;;;;;9.20;2.72;;;20.10;99.90;;;;;;5070264;28;20189;-76
2023/07/11 02:00:19;;;;;;;10.70;3.38;;;20.20;99.90;;;;;;5050197;28;20623;-77
2023/07/11 02:02:51;;;;;;;7.93;2.58;;;20.10;99.90;;;;;;5051907;28;20192;-76
2023/07/11 02:05:20;;;;;;;6.30;2.90;;;20.10;99.90;;;;;;5034501;28;20177;-75
2023/07/11 02:07:46;;;;;;;5.90;2.70;;;20.10;99.90;;;;;;5057662;28;20179;-77
2023/07/11 02:10:12;;;;;;;6.03;2.50;;;20.10;99.90;;;;;;5053434;28;20688;-76
2023/07/11 02:12:38;;;;;;;5.40;2.60;;;20.10;99.90;;;;;;5048064;28;20200;-75
2023/07/11 02:15:04;;;;;;;13.13;3.00;;;20.00;99.90;;;;;;5065290;28;20198;-76
2023/07/11 02:17:29;;;;;;;7.25;3.03;;;20.00;99.90;;;;;;5067142;28;20187;-76
2023/07/11 02:19:55;;;;;;;9.00;3.38;;;19.90;99.90;;;;;;5063696;28;20767;-76
2023/07/11 02:22:22;;;;;;;8.77;3.05;;;19.90;99.90;;;;;;5034701;28;20275;-76
2023/07/11 02:24:48;;;;;;;11.85;3.08;;;19.90;99.90;;;;;;5068765;28;20178;-76
2023/07/11 02:27:14;;;;;;;12.50;3.55;;;19.90;99.90;;;;;;5059959;28;20262;-77
2023/07/11 02:29:40;;;;;;;6.78;3.15;;;19.80;99.90;;;;;;5053278;28;20727;-77
2023/07/11 02:32:06;;;;;;;11.57;3.15;;;19.70;99.90;;;;;;5061340;28;20257;-80
2023/07/11 02:34:32;;;;;;;8.55;2.85;;;19.70;99.90;;;;;;5073918;28;20210;-78
2023/07/11 02:36:57;;;;;;;9.88;2.92;;;19.70;99.90;;;;;;5068985;28;20190;-75
2023/07/11 02:39:23;;;;;;;13.00;3.10;;;19.60;99.90;;;;;;5087357;28;20652;-78
2023/07/11 02:41:49;;;;;;;9.52;2.88;;;19.60;99.90;;;;;;5060210;28;20670;-77
2023/07/11 02:44:15;;;;;;;7.97;2.83;;;19.60;99.90;;;;;;5101270;28;20240;-77
2023/07/11 02:46:41;;;;;;;8.00;2.65;;;19.60;99.90;;;;;;5063446;28;20183;-76
2023/07/11 02:49:08;;;;;;;6.47;2.80;;;19.60;99.90;;;;;;5055897;28;20191;-79
2023/07/11 02:51:39;;;;;;;9.27;2.97;;;19.60;99.90;;;;;;5054165;28;20321;-78
2023/07/11 02:54:06;;;;;;;7.13;2.60;;;19.50;99.90;;;;;;5059487;28;20194;-75
2023/07/11 02:56:32;;;;;;;10.50;3.05;;;19.50;99.90;;;;;;5059538;28;20672;-77
2023/07/11 02:59:01;;;;;;;7.97;2.92;;;19.50;99.90;;;;;;5074059;28;20186;-75
2023/07/11 03:01:31;;;;;;;7.35;2.90;;;19.50;99.90;;;;;;5069854;28;20297;-75
2023/07/11 03:03:57;;;;;;;7.90;2.60;;;19.40;99.90;;;;;;5055402;28;20196;-75
2023/07/11 03:06:23;;;;;;;9.32;3.00;;;19.40;99.90;;;;;;5063885;28;20187;-75
2023/07/11 03:08:49;;;;;;;8.10;2.90;;;19.40;99.90;;;;;;5072532;28;20660;-75
2023/07/11 03:11:15;;;;;;;6.95;2.70;;;19.40;99.90;;;;;;5059052;28;20219;-75
2023/07/11 03:13:42;;;;;;;8.18;3.03;;;19.40;99.90;;;;;;5083995;28;20178;-76
2023/07/11 03:16:08;;;;;;;6.30;3.00;;;19.40;99.90;;;;;;5060254;28;20191;-77
2023/07/11 03:18:33;;;;;;;13.35;3.10;;;19.40;99.90;;;;;;5065268;28;20639;-75
2023/07/11 03:21:01;;;;;;;8.30;3.30;;;19.30;99.90;;;;;;5058875;28;20242;-76
2023/07/11 03:23:27;;;;;;;10.45;3.22;;;19.30;99.90;;;;;;5056120;28;20206;-79
2023/07/11 03:25:53;;;;;;;7.05;3.20;;;19.30;99.90;;;;;;5064858;28;20535;-79
2023/07/11 03:28:19;;;;;;;6.10;2.88;;;19.30;99.90;;;;;;5050494;28;20279;-76
2023/07/11 03:30:46;;;;;;;11.68;3.42;;;19.20;99.90;;;;;;5033282;28;20180;-77
2023/07/11 03:33:12;;;;;;;12.38;3.70;;;19.20;99.90;;;;;;5050476;28;20186;-76
2023/07/11 03:35:38;;;;;;;10.60;3.38;;;19.20;99.90;;;;;;5069889;28;20193;-77
2023/07/11 03:38:04;;;;;;;9.27;4.10;;;19.20;99.90;;;;;;5053391;28;20187;-76
2023/07/11 03:40:30;;;;;;;6.45;3.53;;;19.20;99.90;;;;;;5062713;28;20203;-77
2023/07/11 03:42:56;;;;;;;8.00;3.40;;;19.10;99.90;;;;;;5057260;28;20467;-81
2023/07/11 03:45:23;;;;;;;9.73;2.90;;;19.10;99.90;;;;;;5080417;28;20562;-77
2023/07/11 03:47:48;;;;;;;11.98;3.28;;;19.10;99.90;;;;;;5040298;28;20578;-76
2023/07/11 03:50:14;;;;;;;13.07;3.50;;;19.00;99.90;;;;;;5037434;28;20175;-78
2023/07/11 03:52:40;;;;;;;8.73;3.15;;;19.10;99.90;;;;;;5058365;28;20198;-75
2023/07/11 03:55:07;;;;;;;9.80;3.40;;;19.00;99.90;;;;;;5056120;28;20213;-80
2023/07/11 03:57:33;;;;;;;5.63;2.97;;;19.10;99.90;;;;;;5055536;28;20202;-77
2023/07/11 03:59:59;;;;;;;7.22;3.00;;;19.10;99.90;;;;;;5056100;28;20207;-76
2023/07/11 04:02:24;;;;;;;7.68;3.60;;;19.10;99.90;;;;;;5048407;28;20325;-76
2023/07/11 04:04:50;;;;;;;11.50;3.42;;;19.10;99.90;;;;;;5059661;28;20716;-78
2023/07/11 04:07:16;;;;;;;7.47;3.10;;;19.10;99.90;;;;;;5056134;28;20207;-76
2023/07/11 04:09:42;;;;;;;8.65;3.92;;;19.10;99.90;;;;;;5063474;28;20213;-77
2023/07/11 04:12:08;;;;;;;10.82;2.90;;;19.10;99.90;;;;;;5073663;28;20212;-78
2023/07/11 04:14:34;;;;;;;8.80;3.30;;;19.00;99.90;;;;;;5058870;28;20214;-77
2023/07/11 04:17:00;;;;;;;13.00;3.30;;;19.10;99.90;;;;;;5061486;28;20215;-76
2023/07/11 04:19:26;;;;;;;8.77;3.28;;;19.00;99.90;;;;;;5057756;28;20186;-77
2023/07/11 04:21:51;;;;;;;13.30;3.63;;;19.10;99.90;;;;;;5069561;28;20233;-76
2023/07/11 04:24:17;;;;;;;7.85;3.30;;;19.00;99.90;;;;;;5062619;28;20570;-76
2023/07/11 04:26:43;;;;;;;10.82;4.05;;;19.00;99.90;;;;;;5055766;28;20174;-77
2023/07/11 04:29:09;;;;;;;9.82;3.65;;;19.00;99.90;;;;;;5071416;28;20182;-76
2023/07/11 04:31:35;;;;;;;11.48;3.92;;;19.00;99.90;;;;;;5075935;28;20193;-76
2023/07/11 04:34:00;;;;;;;11.95;3.90;;;19.00;99.90;;;;;;5054441;28;20214;-78
2023/07/11 04:36:27;;;;;;;7.03;3.53;;;19.00;99.90;;;;;;5035229;28;20199;-77
2023/07/11 04:38:53;;;;;;;9.25;3.95;;;19.10;99.90;;;;;;5064956;28;20183;-77
2023/07/11 04:41:18;;;;;;;12.05;4.00;;;19.10;99.90;;;;;;5070066;28;20736;-79
2023/07/11 04:43:44;;;;;;;8.68;3.88;;;19.10;99.90;;;;;;5049357;28;20584;-77
2023/07/11 04:46:10;;;;;;;11.55;4.03;;;19.10;99.90;;;;;;5053472;28;20194;-75
2023/07/11 04:48:36;;;;;;;9.55;3.80;;;19.10;99.90;;;;;;5048322;28;20266;-83
2023/07/11 04:51:04;;;;;;;13.40;4.35;;;19.10;99.90;;;;;;5054199;28;20201;-77
2023/07/11 04:53:32;;;;;;;8.05;3.72;;;19.20;99.90;;;;;;5067632;28;20189;-77
2023/07/11 04:56:00;;;;;;;12.52;3.85;;;19.10;99.90;;;;;;5052762;28;20247;-78
2023/07/11 04:58:29;;;;;;;12.40;4.45;;;19.20;99.90;;;;;;5065069;28;20172;-77
2023/07/11 05:01:13;;;;;;;12.55;4.40;;;19.20;99.90;;;;;;5050399;28;20210;-76
2023/07/11 05:03:40;;;;;;;10.20;4.07;;;19.20;99.90;;;;;;5060920;28;20190;-76
2023/07/11 05:06:07;;;;;;;12.18;4.60;;;19.20;99.90;;;;;;5056937;28;20184;-78
2023/07/11 05:08:33;;;;;;;13.05;4.43;;;19.20;99.90;;;;;;5057557;28;20300;-78
2023/07/11 05:11:02;;;;;;;16.02;4.30;;;19.20;99.90;;;;;;5053363;28;20885;-77
2023/07/11 05:13:30;;;;;;;9.23;4.35;;;19.20;99.90;;;;;;5049995;28;20180;-82
2023/07/11 05:16:04;;;;;;;12.73;4.53;;;19.20;99.90;;;;;;5060187;28;20184;-78
2023/07/11 05:18:30;;;;;;;15.45;4.78;;;19.20;99.90;;;;;;5051092;28;20194;-77
2023/07/11 05:20:57;;;;;;;12.25;4.88;;;19.30;99.90;;;;;;5063255;28;20245;-77
2023/07/11 05:23:25;;;;;;;15.57;4.68;;;19.30;99.90;;;;;;5058577;28;20644;-75
2023/07/11 05:25:51;;;;;;;14.93;4.65;;;19.30;99.90;;;;;;5058789;28;20183;-81
2023/07/11 05:28:17;;;;;;;12.32;4.68;;;19.40;99.90;;;;;;5053349;28;20236;-75
2023/07/11 05:30:43;;;;;;;9.63;4.53;;;19.40;99.90;;;;;;5058044;28;20186;-76
2023/07/11 05:33:09;;;;;;;14.40;4.70;;;19.40;99.90;;;;;;5020890;28;20605;-78
2023/07/11 05:36:32;;;;;;;11.88;4.60;;;19.50;99.90;;;;;;5061155;28;20191;-76
2023/07/11 05:39:07;;;;;;;17.05;4.80;;;19.60;99.90;;;;;;5056747;28;20528;-77
2023/07/11 05:41:35;;;;;;;11.45;4.85;;;19.60;99.90;;;;;;5058350;28;20213;-76
2023/07/11 05:44:01;;;;;;;9.68;4.55;;;19.70;99.90;;;;;;5068358;28;20191;-76
2023/07/11 05:46:28;;;;;;;13.30;4.82;;;19.80;99.90;;;;;;5065436;28;20573;-81
2023/07/11 05:48:54;;;;;;;12.23;4.70;;;19.80;99.90;;;;;;5091051;28;20202;-81
2023/07/11 05:51:21;;;;;;;11.60;5.20;;;19.90;99.90;;;;;;5060541;28;20694;-77
2023/07/11 05:53:50;;;;;;;12.65;4.25;;;19.90;99.90;;;;;;5056417;28;20202;-75
2023/07/11 05:56:18;;;;;;;14.40;5.13;;;20.00;99.90;;;;;;5063341;28;20189;-76
2023/07/11 05:58:45;;;;;;;14.68;4.95;;;20.10;99.90;;;;;;5069169;28;20184;-75
2023/07/11 06:01:13;;;;;;;13.15;5.03;;;20.10;99.90;;;;;;5087957;28;20217;-77
2023/07/11 06:03:45;;;;;;;15.52;5.15;;;20.20;99.90;;;;;;5081006;28;20526;-78
2023/07/11 06:06:12;;;;;;;9.30;4.80;;;20.20;99.90;;;;;;5059457;28;20175;-76
2023/07/11 06:08:38;;;;;;;13.20;5.05;;;20.20;99.90;;;;;;5057298;28;20191;-81
2023/07/11 06:11:05;;;;;;;19.60;5.25;;;20.30;99.90;;;;;;5069872;28;20193;-77
2023/07/11 06:13:33;;;;;;;14.30;5.20;;;20.30;99.90;;;;;;5048539;28;20736;-77
2023/07/11 06:16:08;;;;;;;14.60;5.32;;;20.40;99.90;;;;;;5056773;28;20266;-76
2023/07/11 06:18:36;;;;;;;12.75;5.20;;;20.40;99.90;;;;;;5058045;28;20210;-79
2023/07/11 06:21:03;;;;;;;13.27;5.03;;;20.40;99.90;;;;;;5062545;28;20234;-77
2023/07/11 06:23:29;;;;;;;13.10;5.10;;;20.40;99.90;;;;;;5079553;28;20270;-77
2023/07/11 06:25:55;;;;;;;13.43;4.80;;;20.40;99.90;;;;;;5051999;28;20191;-76
2023/07/11 06:28:20;;;;;;;9.20;5.00;;;20.50;99.90;;;;;;5063068;28;20209;-76
2023/07/11 06:30:47;;;;;;;10.68;5.28;;;20.50;99.90;;;;;;5048798;28;20192;-75
2023/07/11 06:33:14;;;;;;;10.57;5.18;;;20.60;99.90;;;;;;5050046;28;20706;-78
2023/07/11 06:35:41;;;;;;;12.00;5.10;;;20.60;99.90;;;;;;5050920;28;20262;-83
2023/07/11 06:38:08;;;;;;;10.07;5.03;;;20.70;99.90;;;;;;5053987;28;20180;-76
2023/07/11 06:40:34;;;;;;;10.55;5.38;;;20.70;99.90;;;;;;5062079;28;20313;-79
2023/07/11 06:43:00;;;;;;;8.73;5.28;;;20.80;99.90;;;;;;5066071;28;20187;-77
2023/07/11 06:45:26;;;;;;;9.38;5.35;;;20.90;99.90;;;;;;5066783;28;20171;-78
2023/07/11 06:47:52;;;;;;;11.30;5.25;;;20.90;99.90;;;;;;5055394;28;20241;-79
2023/07/11 06:50:18;;;;;;;9.10;4.88;;;21.00;99.90;;;;;;5064886;28;20536;-78
2023/07/11 06:52:44;;;;;;;9.10;4.50;;;21.10;99.90;;;;;;5068000;28;20183;-76
2023/07/11 06:55:10;;;;;;;13.70;4.53;;;21.20;99.90;;;;;;5072313;28;20178;-78
2023/07/11 06:57:36;;;;;;;13.05;5.15;;;21.30;99.90;;;;;;5059540;28;20263;-75
2023/07/11 07:00:03;;;;;;;8.10;4.72;;;21.30;99.90;;;;;;5046909;28;20215;-76
2023/07/11 07:02:28;;;;;;;10.02;5.22;;;21.40;99.90;;;;;;5048459;28;20183;-79
2023/07/11 07:04:55;;;;;;;12.13;4.75;;;21.50;99.90;;;;;;5048026;28;20183;-75
2023/07/11 07:07:21;;;;;;;13.07;4.80;;;21.60;99.90;;;;;;5054144;28;20187;-75
2023/07/11 07:09:47;;;;;;;11.23;4.95;;;21.70;99.90;;;;;;5056070;28;20214;-76
2023/07/11 07:12:15;;;;;;;11.90;5.13;;;21.80;99.90;;;;;;5070316;28;20225;-77
2023/07/11 07:14:41;;;;;;;9.38;4.65;;;21.90;99.90;;;;;;5086907;28;20316;-76
2023/07/11 07:17:07;;;;;;;9.65;4.30;;;21.90;99.90;;;;;;5053212;28;20270;-75
2023/07/11 07:22:35;;;;;;;11.00;4.10;;;22.00;99.90;;;;;;5772456;23;20230;-85
2023/07/11 07:25:00;;;;;;;11.57;4.50;;;22.10;99.90;;;;;;4892546;29;20183;-85
2023/07/11 07:27:26;;;;;;;12.27;4.10;;;22.20;99.90;;;;;;4930633;29;20199;-86
2023/07/11 07:29:52;;;;;;;8.90;3.90;;;22.30;99.90;;;;;;4929990;29;20752;-86
2023/07/11 07:32:18;;;;;;;13.40;4.65;;;22.40;99.90;;;;;;4931931;29;20188;-86
2023/07/11 07:34:44;;;;;;;8.95;4.65;;;22.50;99.90;;;;;;4921425;29;20270;-85
2023/07/11 07:37:09;;;;;;;8.52;4.07;;;22.60;99.90;;;;;;4933833;29;20851;-85
2023/07/11 07:39:37;;;;;;;8.98;4.57;;;22.70;99.90;;;;;;4932330;29;20222;-85
2023/07/11 07:42:03;;;;;;;6.93;3.35;;;22.80;99.90;;;;;;4901936;29;20270;-84
2023/07/11 07:44:29;;;;;;;7.38;3.85;;;22.90;99.90;;;;;;4927526;29;20285;-84
2023/07/11 07:46:54;;;;;;;8.35;3.42;;;23.00;99.90;;;;;;4935526;29;20266;-84
2023/07/11 07:49:20;;;;;;;8.10;3.50;;;23.10;99.90;;;;;;4934321;29;20313;-85
2023/07/11 07:51:46;;;;;;;10.40;3.63;;;23.20;99.90;;;;;;4933612;29;20537;-83
2023/07/11 07:54:12;;;;;;;10.50;4.05;;;23.20;99.90;;;;;;4924382;29;20263;-84
2023/07/11 07:56:37;;;;;;;9.82;3.80;;;23.20;99.90;;;;;;4895193;29;20219;-84
2023/07/11 07:59:03;;;;;;;8.18;4.10;;;23.20;99.90;;;;;;4919356;29;20700;-84
2023/07/11 08:01:30;;;;;;;8.00;3.50;;;23.30;99.90;;;;;;4932555;29;20589;-83
2023/07/11 08:03:56;;;;;;;13.60;3.88;;;23.30;99.90;;;;;;4933369;29;20207;-83
2023/07/11 08:06:22;;;;;;;11.65;3.90;;;23.30;99.90;;;;;;4909921;29;20701;-84
2023/07/11 08:08:49;;;;;;;9.55;4.07;;;23.30;99.90;;;;;;4912102;29;20657;-83
2023/07/11 08:11:17;;;;;;;9.40;4.05;;;23.40;99.90;;;;;;4933187;29;20553;-83
2023/07/11 08:13:46;;;;;;;11.20;4.57;;;23.50;99.90;;;;;;4913567;29;20274;-83
2023/07/11 08:16:12;;;;;;;14.85;4.30;;;23.60;99.90;;;;;;4933784;29;20262;-82
2023/07/11 08:18:38;;;;;;;11.60;3.85;;;23.70;99.90;;;;;;4933722;29;20666;-82
2023/07/11 08:21:04;;;;;;;12.82;4.10;;;23.70;99.90;;;;;;4942586;29;20222;-82
2023/07/11 08:23:29;;;;;;;9.98;4.43;;;23.80;99.90;;;;;;4930621;29;20239;-84
2023/07/11 08:25:56;;;;;;;9.80;4.22;;;23.90;99.90;;;;;;4929066;29;20187;-83
2023/07/11 08:28:22;;;;;;;8.20;3.92;;;23.90;99.90;;;;;;4941203;29;20187;-84
2023/07/11 08:30:48;;;;;;;8.73;3.85;;;24.00;99.90;;;;;;4930890;29;20314;-84
2023/07/11 08:33:14;;;;;;;11.25;4.00;;;24.00;99.90;;;;;;4917895;29;20602;-82
2023/07/11 08:35:40;;;;;;;9.05;4.45;;;24.00;99.90;;;;;;4916815;29;20187;-83
2023/07/11 08:38:11;;;;;;;12.77;4.25;;;24.10;99.90;;;;;;4933608;29;20205;-82
2023/07/11 08:40:45;;;;;;;8.48;3.80;;;24.20;99.90;;;;;;4917401;29;20219;-82
2023/07/11 08:43:25;;;;;;;9.02;4.15;;;24.20;99.90;;;;;;4929139;29;20277;-83
2023/07/11 08:46:07;;;;;;;7.00;3.88;;;24.20;99.90;;;;;;4925533;29;20184;-82
2023/07/11 08:48:41;;;;;;;8.82;3.50;;;24.30;99.90;;;;;;4934396;29;20179;-81
2023/07/11 08:51:30;;;;;;;8.98;3.80;;;24.30;99.90;;;;;;4931334;29;20216;-81
2023/07/11 08:54:10;;;;;;;11.38;3.92;;;24.40;99.90;;;;;;4917148;29;20290;-81
2023/07/11 08:56:39;;;;;;;8.02;3.45;;;24.50;99.90;;;;;;4921175;29;20179;-81
2023/07/11 08:59:19;;;;;;;9.88;3.47;;;24.70;99.90;;;;;;4910204;29;20187;-81
2023/07/11 09:02:09;;;;;;;8.85;3.58;;;24.80;99.90;;;;;;4922318;29;20261;-81
2023/07/11 09:04:42;;;;;;;9.85;3.78;;;25.00;99.90;;;;;;4925416;29;20417;-81
2023/07/11 09:07:21;;;;;;;15.95;3.78;;;25.20;99.70;;;;;;4928418;29;20194;-81
2023/07/11 09:09:47;;;;;;;7.78;3.53;;;25.30;99.10;;;;;;4933051;29;20259;-81
2023/07/11 09:12:50;;;;;;;17.48;3.85;;;25.40;98.70;;;;;;4916777;29;20599;-81
2023/07/11 09:15:31;;;;;;;8.65;3.10;;;25.50;98.00;;;;;;4922856;29;20199;-81
2023/07/11 09:18:18;;;;;;;16.10;3.15;;;25.60;98.00;;;;;;4928077;29;20262;-81
2023/07/11 09:21:07;;;;;;;8.10;3.17;;;25.80;97.50;;;;;;4919929;29;20216;-82
2023/07/11 09:24:12;;;;;;;7.90;3.03;;;25.90;96.90;;;;;;4932594;29;20227;-89
2023/07/11 09:26:47;;;;;;;8.25;2.58;;;26.00;96.20;;;;;;4935409;29;20183;-86
2023/07/11 09:29:14;;;;;;;6.05;2.78;;;26.10;95.50;;;;;;4937455;29;20202;-85
2023/07/11 09:31:44;;;;;;;7.93;3.35;;;26.10;95.20;;;;;;4930547;29;20198;-86
2023/07/11 09:34:22;;;;;;;8.27;2.97;;;26.20;95.10;;;;;;4944451;29;20187;-86
2023/07/11 09:36:49;;;;;;;10.52;3.30;;;26.30;94.80;;;;;;4936045;29;20190;-85
2023/07/11 09:39:29;;;;;;;6.10;3.22;;;26.40;94.70;;;;;;4937062;29;20222;-84
2023/07/11 09:42:10;;;;;;;13.23;2.95;;;26.50;94.50;;;;;;4936559;29;20359;-86
2023/07/11 09:44:36;;;;;;;6.20;2.60;;;26.70;94.30;;;;;;4937919;29;20276;-86
2023/07/11 09:47:16;;;;;;;14.20;2.67;;;26.90;93.90;;;;;;4932928;29;20292;-86
2023/07/11 09:49:44;;;;;;;7.20;3.05;;;27.00;93.20;;;;;;4919805;29;20183;-86
2023/07/11 09:52:20;;;;;;;11.10;2.88;;;27.20;92.80;;;;;;4937405;29;20266;-87
2023/07/11 09:54:46;;;;;;;6.03;2.42;;;27.30;92.40;;;;;;4921099;29;20187;-86
2023/07/11 09:57:12;;;;;;;4.78;2.10;;;27.50;91.60;;;;;;4926318;29;20270;-87
2023/07/11 09:59:43;;;;;;;14.75;2.60;;;27.70;90.80;;;;;;4904899;29;20191;-88
2023/07/11 10:02:16;;;;;;;6.70;2.30;;;27.80;90.10;;;;;;4944382;29;20190;-87
2023/07/11 10:04:42;;;;;;;8.77;2.40;;;27.90;88.90;;;;;;4937897;29;20179;-90
2023/07/11 10:07:14;;;;;;;7.43;2.45;;;28.00;88.10;;;;;;4923186;29;20612;-89
2023/07/11 10:09:50;;;;;;;5.75;2.40;;;28.10;87.20;;;;;;4938198;29;20220;-90
2023/07/11 10:12:22;;;;;;;5.60;2.00;;;28.20;86.50;;;;;;4935373;29;20187;-87
2023/07/11 10:14:57;;;;;;;5.13;2.22;;;28.30;85.10;;;;;;4938103;29;20202;-88
2023/07/11 10:17:37;;;;;;;3.92;2.28;;;28.40;84.20;;;;;;4936612;29;20182;-87
2023/07/11 10:20:17;;;;;;;5.20;2.35;;;28.40;83.20;;;;;;4916233;29;20225;-82
2023/07/11 10:22:47;;;;;;;5.85;2.22;;;28.40;82.80;;;;;;4933748;29;20645;-86
2023/07/11 10:25:22;;;;;;;7.85;2.28;;;28.40;82.90;;;;;;4937959;29;20181;-86
2023/07/11 10:28:05;;;;;;;9.18;2.38;;;28.40;82.80;;;;;;4937615;29;20205;-86
2023/07/11 10:30:36;;;;;;;8.00;2.65;;;28.40;82.60;;;;;;4936722;29;20171;-86
2023/07/11 10:33:12;;;;;;;5.88;2.30;;;28.40;82.60;;;;;;4937972;29;20249;-86
2023/07/11 10:35:39;;;;;;;9.55;2.90;;;28.40;83.00;;;;;;4939321;29;20228;-86
2023/07/11 10:38:43;;;;;;;9.20;2.55;;;28.40;83.50;;;;;;4922695;29;20182;-86
2023/07/11 10:41:15;;;;;;;6.93;2.45;;;28.40;83.70;;;;;;4897635;29;20328;-86
2023/07/11 10:43:42;;;;;;;9.77;2.47;;;28.50;83.90;;;;;;4937261;29;20171;-84
2023/07/11 10:46:19;;;;;;;4.85;2.20;;;28.50;83.90;;;;;;4937314;29;20183;-85
2023/07/11 10:48:54;;;;;;;9.20;2.50;;;28.60;83.80;;;;;;4920958;29;20174;-85
2023/07/11 10:51:28;;;;;;;10.00;2.42;;;28.60;82.20;;;;;;4936602;29;20181;-86
2023/07/11 10:54:05;;;;;;;8.25;2.60;;;28.60;81.80;;;;;;4937483;29;20174;-86
2023/07/11 10:56:43;;;;;;;11.38;2.53;;;28.60;81.70;;;;;;4920509;29;20183;-85
2023/07/11 10:59:13;;;;;;;8.02;2.50;;;28.60;81.80;;;;;;4920820;29;20202;-87
2023/07/11 11:01:42;;;;;;;10.18;2.97;;;28.60;81.80;;;;;;4936752;29;20206;-85
2023/07/11 11:04:32;;;;;;;7.38;2.53;;;28.60;81.20;;;;;;4937190;29;20187;-86
2023/07/11 11:07:07;;;;;;;6.68;2.75;;;28.60;81.00;;;;;;4939978;29;20258;-86
2023/07/11 11:10:04;;;;;;;10.38;2.70;;;28.60;80.60;;;;;;4923687;29;20186;-85
2023/07/11 11:12:34;;;;;;;5.03;2.17;;;28.60;80.20;;;;;;4926325;29;20179;-86
2023/07/11 11:15:37;;;;;;;4.88;2.50;;;28.60;80.30;;;;;;4941203;29;20183;-86
2023/07/11 11:18:15;;;;;;;8.88;2.35;;;28.60;80.20;;;;;;4941043;29;20173;-87
2023/07/11 11:21:04;;;;;;;8.77;2.50;;;28.70;80.30;;;;;;4923602;29;20682;-86
2023/07/11 11:24:01;;;;;;;10.05;2.60;;;28.70;80.60;;;;;;4939236;29;20311;-86
2023/07/11 11:26:46;;;;;;;6.97;2.70;;;28.80;80.70;;;;;;4939279;29;20250;-86
2023/07/11 11:29:51;;;;;;;12.00;2.65;;;28.80;81.00;;;;;;4920946;29;20175;-85
2023/07/11 11:32:20;;;;;;;7.38;2.45;;;28.90;80.90;;;;;;4940046;29;20213;-86
2023/07/11 11:35:04;;;;;;;7.80;2.90;;;28.90;80.90;;;;;;4936712;28;20185;-85
2023/07/11 11:37:30;;;;;;;7.20;2.63;;;29.00;80.50;;;;;;4920758;29;20662;-85
2023/07/11 11:40:08;;;;;;;10.45;2.95;;;29.00;80.30;;;;;;4937392;29;20201;-85
2023/07/11 11:42:35;;;;;;;12.70;2.92;;;29.10;79.50;;;;;;4936018;29;20167;-85
2023/07/11 11:45:10;;;;;;;7.72;2.50;;;29.10;79.70;;;;;;4924739;29;20600;-86
2023/07/11 11:47:37;;;;;;;6.70;2.63;;;29.20;79.80;;;;;;4921498;29;20205;-85
2023/07/11 11:50:05;;;;;;;7.93;2.72;;;29.20;79.20;;;;;;4925017;29;20194;-87
2023/07/11 11:52:35;;;;;;;5.18;2.58;;;29.10;78.30;;;;;;4905022;29;20178;-86
2023/07/11 11:55:20;;;;;;;6.25;2.40;;;29.10;77.50;;;;;;4921191;29;20174;-85
2023/07/11 11:57:47;;;;;;;8.85;2.50;;;29.10;77.70;;;;;;4937833;29;20201;-84
2023/07/11 12:00:39;;;;;;;7.65;2.75;;;29.10;77.30;;;;;;4907431;29;20217;-86
2023/07/11 12:03:26;;;;;;;11.55;2.58;;;29.10;77.20;;;;;;4920590;29;20292;-85
2023/07/11 12:05:53;;;;;;;5.30;2.58;;;29.10;76.30;;;;;;4921308;29;20186;-86
2023/07/11 12:08:30;;;;;;;5.30;2.50;;;29.20;76.90;;;;;;4906858;29;20190;-84
2023/07/11 12:11:19;;;;;;;7.40;2.97;;;29.20;77.00;;;;;;4936274;29;20171;-86
2023/07/11 12:14:31;;;;;;;6.95;2.80;;;29.40;77.10;;;;;;4902879;29;20190;-87
2023/07/11 12:16:58;;;;;;;10.45;2.80;;;29.70;77.10;;;;;;4932528;29;20254;-86
2023/07/11 12:19:31;;;;;;;7.32;2.70;;;30.00;75.80;;;;;;4918286;29;20603;-87
2023/07/11 12:22:04;;;;;;;7.72;2.53;;;30.20;75.30;;;;;;4935056;29;20285;-86
2023/07/11 12:24:33;;;;;;;8.98;2.72;;;30.40;75.20;;;;;;4936252;29;20245;-86
2023/07/11 12:27:20;;;;;;;9.27;2.40;;;30.60;74.20;;;;;;4934314;29;20658;-87
2023/07/11 12:29:54;;;;;;;6.25;3.15;;;30.80;73.80;;;;;;4933982;29;20200;-86
2023/07/11 12:32:38;;;;;;;9.35;2.78;;;30.90;72.30;;;;;;4918456;29;20190;-86
2023/07/11 12:35:10;;;;;;;8.90;2.95;;;31.00;71.70;;;;;;4918951;29;20179;-86
2023/07/11 12:37:59;;;;;;;13.38;2.85;;;31.00;71.40;;;;;;4935208;29;20273;-86
2023/07/11 12:40:49;;;;;;;10.43;3.00;;;31.00;71.10;;;;;;4918368;29;20347;-86
2023/07/11 12:43:20;;;;;;;7.28;2.63;;;30.90;70.30;;;;;;4934481;29;20611;-87
2023/07/11 12:45:59;;;;;;;11.15;2.65;;;30.90;70.50;;;;;;4934944;29;20210;-87
2023/07/11 12:48:34;;;;;;;10.95;3.50;;;30.90;70.90;;;;;;4936921;29;20691;-86
2023/07/11 12:51:05;;;;;;;15.18;2.72;;;30.80;71.00;;;;;;4936005;29;20579;-86
2023/07/11 12:53:37;;;;;;;6.78;3.10;;;30.70;71.40;;;;;;4936203;29;20598;-86
2023/07/11 12:56:12;;;;;;;12.05;3.30;;;30.60;72.10;;;;;;4906339;29;20279;-85
2023/07/11 12:58:40;;;;;;;10.05;3.38;;;30.60;72.20;;;;;;4922019;29;20178;-86
2023/07/11 13:01:15;;;;;;;10.57;3.40;;;30.70;72.50;;;;;;4938436;29;20264;-85
2023/07/11 13:03:41;;;;;;;16.55;3.15;;;30.70;72.40;;;;;;4937371;29;20170;-85